Time;durP1;ratioP1;P1;durP2;ratioP2;P2;SDS_P1;SDS_P2;PMS_P1;PMS_P2;Temp;Humidity;BMP_temperature;BMP_pressure;BME280_temperature;BME280_humidity;BME280_pressure;Samples;Min_cycle;Max_cycle;Signal;HPM_P1;HPM_P2
2023/02/15 00:01:17;;;;;;;4.03;3.03;;;2.40;87.80;;;;;;4816436;29;20191;-74
2023/02/15 00:03:43;;;;;;;5.10;3.77;;;2.40;87.90;;;;;;4819681;29;20191;-74
2023/02/15 00:06:08;;;;;;;4.10;3.00;;;2.30;88.00;;;;;;4819524;29;20195;-75
2023/02/15 00:08:34;;;;;;;4.57;3.30;;;2.30;88.30;;;;;;4819760;29;20198;-74
2023/02/15 00:11:09;;;;;;;2.73;2.50;;;2.30;88.40;;;;;;4819876;29;20268;-75
2023/02/15 00:13:36;;;;;;;4.43;3.50;;;2.30;88.30;;;;;;4826101;29;20604;-75
2023/02/15 00:16:07;;;;;;;3.47;3.17;;;2.20;88.50;;;;;;4824173;29;20271;-75
2023/02/15 00:18:33;;;;;;;3.37;2.83;;;2.20;88.60;;;;;;4837107;29;20639;-74
2023/02/15 00:21:04;;;;;;;6.47;3.77;;;2.20;88.50;;;;;;4821312;29;20188;-74
2023/02/15 00:23:29;;;;;;;5.03;3.17;;;2.30;88.50;;;;;;4835752;29;20195;-73
2023/02/15 00:26:10;;;;;;;3.47;3.17;;;2.20;88.80;;;;;;4836186;29;20213;-73
2023/02/15 00:28:35;;;;;;;8.13;3.37;;;2.20;88.80;;;;;;4814277;29;20180;-74
2023/02/15 00:31:09;;;;;;;4.70;3.03;;;2.20;89.00;;;;;;4820445;29;20210;-74
2023/02/15 00:33:37;;;;;;;3.47;3.17;;;2.20;88.80;;;;;;4818768;29;20585;-74
2023/02/15 00:36:04;;;;;;;3.47;2.93;;;2.20;88.90;;;;;;4818196;29;20280;-74
2023/02/15 00:38:31;;;;;;;7.33;3.03;;;2.20;89.10;;;;;;4818732;29;21111;-73
2023/02/15 00:40:59;;;;;;;4.40;3.00;;;2.20;89.10;;;;;;4815681;29;20198;-74
2023/02/15 00:43:25;;;;;;;7.53;4.37;;;2.10;89.40;;;;;;4817769;29;20625;-74
2023/02/15 00:45:51;;;;;;;3.00;2.77;;;2.20;89.10;;;;;;4817436;29;20284;-73
2023/02/15 00:48:18;;;;;;;4.77;3.03;;;2.20;89.00;;;;;;4820388;29;20362;-74
2023/02/15 00:50:48;;;;;;;4.37;3.33;;;2.20;88.90;;;;;;4818521;29;20198;-73
2023/02/15 00:53:14;;;;;;;4.07;2.67;;;2.30;88.70;;;;;;4832630;29;20716;-74
2023/02/15 00:55:40;;;;;;;5.20;3.60;;;2.30;88.70;;;;;;4817837;29;20195;-74
2023/02/15 00:58:06;;;;;;;3.30;3.07;;;2.20;88.80;;;;;;4834402;29;20571;-74
2023/02/15 01:00:32;;;;;;;3.67;3.23;;;2.30;88.70;;;;;;4819795;29;20271;-74
2023/02/15 01:02:58;;;;;;;3.70;2.67;;;2.30;88.60;;;;;;4823729;29;20274;-74
2023/02/15 01:05:24;;;;;;;3.73;3.20;;;2.30;88.40;;;;;;4828288;29;20224;-74
2023/02/15 01:07:49;;;;;;;5.17;2.93;;;2.30;88.40;;;;;;4825594;29;20215;-74
2023/02/15 01:10:15;;;;;;;6.57;3.80;;;2.30;88.80;;;;;;4821486;29;21040;-74
2023/02/15 01:12:42;;;;;;;3.90;2.77;;;2.20;89.10;;;;;;4819438;29;20288;-74
2023/02/15 01:15:07;;;;;;;4.73;2.53;;;2.20;89.10;;;;;;4836676;29;20210;-73
2023/02/15 01:17:33;;;;;;;5.53;2.87;;;2.20;89.10;;;;;;4823051;29;21099;-73
2023/02/15 01:19:59;;;;;;;4.00;2.93;;;2.20;89.10;;;;;;4823598;29;20693;-74
2023/02/15 01:22:25;;;;;;;4.20;3.10;;;2.20;89.10;;;;;;4821606;29;20259;-74
2023/02/15 01:24:51;;;;;;;5.60;3.73;;;2.20;89.10;;;;;;4820672;29;20232;-73
2023/02/15 01:27:17;;;;;;;3.93;3.07;;;2.30;88.90;;;;;;4817839;29;20199;-73
2023/02/15 01:29:43;;;;;;;3.17;2.83;;;2.30;88.90;;;;;;4822647;29;20195;-73
2023/02/15 01:34:44;;;;;;;2.87;2.67;;;2.20;89.10;;;;;;4346897;24;20259;-73
2023/02/15 01:37:09;;;;;;;6.47;3.03;;;2.30;89.10;;;;;;4820651;29;20290;-73
2023/02/15 01:39:35;;;;;;;2.07;1.90;;;2.30;89.10;;;;;;4819371;29;20329;-73
2023/02/15 01:42:01;;;;;;;3.97;2.90;;;2.30;88.90;;;;;;4823754;29;20278;-73
2023/02/15 01:45:03;;;;;;;6.90;3.73;;;2.30;89.00;;;;;;4818032;29;20256;-72
2023/02/15 01:47:43;;;;;;;1.97;1.87;;;2.30;89.10;;;;;;4817271;29;20706;-73
2023/02/15 01:50:11;;;;;;;2.20;2.10;;;2.30;89.10;;;;;;4821964;29;20308;-73
2023/02/15 01:52:40;;;;;;;4.60;2.53;;;2.30;88.90;;;;;;4835757;29;20230;-73
2023/02/15 01:55:07;;;;;;;3.63;3.30;;;2.30;88.90;;;;;;4822338;29;20191;-72
2023/02/15 01:57:33;;;;;;;3.20;2.90;;;2.20;89.00;;;;;;4835269;29;20584;-73
2023/02/15 02:00:02;;;;;;;3.60;2.80;;;2.20;89.10;;;;;;4820746;29;20198;-72
2023/02/15 02:02:28;;;;;;;3.07;2.53;;;2.20;89.20;;;;;;4820319;29;20191;-72
2023/02/15 02:04:59;;;;;;;3.97;2.60;;;2.00;89.80;;;;;;4822730;29;20212;-74
2023/02/15 02:07:28;;;;;;;4.07;2.87;;;2.00;90.10;;;;;;4823183;29;20274;-74
2023/02/15 02:09:54;;;;;;;3.50;2.53;;;2.00;90.10;;;;;;4834487;29;20214;-73
2023/02/15 02:12:21;;;;;;;4.07;2.63;;;2.00;90.30;;;;;;4822343;29;20253;-74
2023/02/15 02:14:49;;;;;;;3.53;2.93;;;2.00;90.00;;;;;;4818475;29;20198;-73
2023/02/15 02:17:32;;;;;;;3.07;2.60;;;2.10;89.90;;;;;;4822917;29;20191;-73
2023/02/15 02:20:26;;;;;;;3.37;3.07;;;2.10;89.60;;;;;;4821407;29;20183;-73
2023/02/15 02:22:54;;;;;;;2.93;2.57;;;2.00;90.00;;;;;;4822512;29;20286;-73
2023/02/15 02:25:23;;;;;;;3.20;2.90;;;2.00;90.10;;;;;;4822351;29;20265;-74
2023/02/15 02:28:21;;;;;;;3.60;3.20;;;2.10;90.20;;;;;;4819239;29;20211;-74
2023/02/15 02:31:24;;;;;;;2.57;2.40;;;2.10;90.00;;;;;;4831805;29;20692;-74
2023/02/15 02:34:12;;;;;;;2.70;2.47;;;2.10;90.00;;;;;;4825902;29;20291;-73
2023/02/15 02:37:03;;;;;;;2.33;2.13;;;2.10;90.00;;;;;;4821249;29;20191;-73
2023/02/15 02:40:00;;;;;;;3.60;2.90;;;2.10;90.20;;;;;;4820490;29;20673;-73
2023/02/15 02:42:48;;;;;;;2.63;2.37;;;2.20;90.00;;;;;;4828894;29;20286;-72
2023/02/15 02:45:24;;;;;;;2.90;2.63;;;2.20;89.80;;;;;;4829785;29;20753;-72
2023/02/15 02:48:04;;;;;;;2.83;2.60;;;2.20;89.70;;;;;;4829758;29;20235;-72
2023/02/15 02:50:30;;;;;;;3.50;2.40;;;2.30;89.80;;;;;;4814452;29;20623;-72
2023/02/15 02:52:58;;;;;;;3.13;2.67;;;2.30;89.70;;;;;;4815040;29;20227;-74
2023/02/15 02:55:43;;;;;;;4.90;3.00;;;2.30;89.50;;;;;;4814619;29;20191;-72
2023/02/15 02:58:42;;;;;;;1.90;1.80;;;2.40;89.40;;;;;;4829770;29;20209;-74
2023/02/15 03:01:21;;;;;;;3.03;2.73;;;2.40;89.40;;;;;;4776321;30;20903;-73
2023/02/15 03:03:52;;;;;;;2.53;2.33;;;2.40;89.40;;;;;;4775211;30;20624;-73
2023/02/15 03:06:50;;;;;;;4.23;3.00;;;2.40;89.20;;;;;;4774460;30;20653;-72
2023/02/15 03:09:41;;;;;;;2.60;2.47;;;2.50;89.10;;;;;;4773213;30;20338;-72
2023/02/15 03:12:09;;;;;;;2.20;2.10;;;2.50;89.00;;;;;;4774940;30;20827;-73
2023/02/15 03:14:36;;;;;;;2.77;2.50;;;2.50;89.20;;;;;;4775204;30;20383;-73
2023/02/15 03:17:03;;;;;;;3.57;2.30;;;2.50;89.00;;;;;;4773294;30;20335;-73
2023/02/15 03:19:33;;;;;;;2.93;2.43;;;2.60;88.80;;;;;;4771128;30;20545;-72
2023/02/15 03:22:19;;;;;;;3.93;2.40;;;2.60;88.70;;;;;;4771063;30;20214;-73
2023/02/15 03:24:55;;;;;;;2.80;2.57;;;2.50;89.00;;;;;;4766710;29;20209;-73
2023/02/15 03:27:26;;;;;;;3.27;3.00;;;2.60;89.00;;;;;;4771706;30;20284;-73
2023/02/15 03:29:57;;;;;;;2.97;2.77;;;2.70;88.90;;;;;;4768045;30;20273;-73
2023/02/15 03:32:26;;;;;;;4.17;2.17;;;2.60;89.10;;;;;;4767815;30;20268;-72
2023/02/15 03:34:52;;;;;;;3.43;2.33;;;2.60;89.20;;;;;;4764565;30;20197;-73
2023/02/15 03:37:20;;;;;;;3.53;2.67;;;2.60;89.10;;;;;;4789186;29;20195;-72
2023/02/15 03:43:41;;;;;;;3.53;1.87;;;2.70;89.00;;;;;;4821035;29;20682;-73
2023/02/15 03:46:17;;;;;;;2.87;2.23;;;2.70;89.00;;;;;;4841984;29;20208;-73
2023/02/15 03:48:49;;;;;;;2.40;1.97;;;2.70;89.00;;;;;;4841820;29;20276;-74
2023/02/15 03:51:34;;;;;;;1.43;1.40;;;2.70;89.00;;;;;;4840939;29;20275;-73
2023/02/15 03:54:09;;;;;;;2.60;2.43;;;2.70;88.90;;;;;;4836821;29;20227;-74
2023/02/15 03:56:38;;;;;;;4.67;2.77;;;2.70;88.80;;;;;;4837234;29;20229;-74
2023/02/15 04:02:09;;;;;;;2.30;2.13;;;2.80;88.80;;;;;;4840292;29;20189;-73
2023/02/15 04:04:42;;;;;;;4.37;2.20;;;2.80;88.60;;;;;;4841413;29;20609;-73
2023/02/15 04:07:09;;;;;;;2.43;2.30;;;2.80;88.70;;;;;;4836829;29;20191;-73
2023/02/15 04:12:20;;;;;;;2.60;2.03;;;2.80;88.60;;;;;;4842362;29;20241;-73
2023/02/15 04:17:30;;;;;;;2.47;1.73;;;2.80;88.50;;;;;;4840468;29;20245;-73
2023/02/15 04:25:24;;;;;;;2.73;2.57;;;2.70;89.10;;;;;;4818083;29;20685;-73
2023/02/15 04:27:52;;;;;;;5.33;3.53;;;2.70;89.10;;;;;;4823256;29;20215;-73
2023/02/15 04:30:21;;;;;;;1.73;1.63;;;2.80;89.10;;;;;;4820029;29;20187;-72
2023/02/15 04:32:47;;;;;;;3.67;2.03;;;2.80;88.90;;;;;;4822458;29;20222;-73
2023/02/15 04:35:13;;;;;;;3.67;2.67;;;2.90;88.80;;;;;;4817459;29;20211;-74
2023/02/15 04:37:40;;;;;;;3.40;3.10;;;2.80;88.90;;;;;;4826181;29;20200;-72
2023/02/15 04:40:07;;;;;;;2.43;2.23;;;2.90;88.90;;;;;;4822577;29;20194;-74
2023/02/15 04:42:33;;;;;;;4.90;3.30;;;2.80;89.10;;;;;;4823310;29;20891;-74
2023/02/15 04:44:59;;;;;;;2.57;2.43;;;2.90;89.00;;;;;;4826002;29;20187;-74
2023/02/15 04:47:24;;;;;;;2.53;1.23;;;2.90;88.90;;;;;;4822351;29;20713;-72
2023/02/15 04:49:50;;;;;;;2.83;2.63;;;2.80;89.10;;;;;;4822394;29;20192;-72
2023/02/15 04:52:17;;;;;;;4.53;2.27;;;2.80;89.20;;;;;;4821330;29;20610;-72
2023/02/15 04:54:43;;;;;;;3.47;2.23;;;2.80;89.20;;;;;;4837002;29;20689;-73
2023/02/15 04:57:09;;;;;;;3.23;2.83;;;2.90;89.10;;;;;;4821893;29;20196;-74
2023/02/15 04:59:35;;;;;;;3.20;2.80;;;2.90;89.00;;;;;;4823919;29;20196;-73
2023/02/15 05:02:00;;;;;;;3.37;2.67;;;2.90;88.90;;;;;;4819737;29;20195;-73
2023/02/15 05:04:26;;;;;;;1.70;1.63;;;2.90;88.90;;;;;;4825476;29;20200;-73
2023/02/15 05:06:52;;;;;;;2.50;2.40;;;2.90;88.90;;;;;;4825265;29;20191;-73
2023/02/15 05:09:17;;;;;;;5.80;2.60;;;2.90;89.00;;;;;;4817680;29;20691;-73
2023/02/15 05:11:43;;;;;;;3.57;3.33;;;2.90;89.00;;;;;;4831096;29;20287;-75
2023/02/15 05:14:09;;;;;;;3.50;3.07;;;2.90;89.10;;;;;;4820907;29;20603;-76
2023/02/15 05:16:34;;;;;;;2.73;2.33;;;2.90;89.00;;;;;;4823317;29;20198;-75
2023/02/15 05:19:00;;;;;;;2.93;2.70;;;2.90;89.10;;;;;;4823184;29;20188;-75
2023/02/15 05:21:26;;;;;;;3.63;2.80;;;2.90;89.10;;;;;;4836301;29;20192;-73
2023/02/15 05:23:52;;;;;;;3.90;2.53;;;2.90;88.90;;;;;;4819324;29;20195;-73
2023/02/15 05:29:05;;;;;;;3.37;2.23;;;2.90;88.90;;;;;;4824379;29;20198;-73
2023/02/15 05:31:31;;;;;;;5.63;2.67;;;2.90;88.90;;;;;;4820853;29;20192;-73
2023/02/15 05:33:57;;;;;;;3.43;2.60;;;2.90;89.00;;;;;;4819643;29;20219;-72
2023/02/15 05:36:23;;;;;;;2.47;2.37;;;2.90;89.10;;;;;;4831806;29;20200;-72
2023/02/15 05:38:49;;;;;;;4.47;3.33;;;2.90;89.20;;;;;;4818762;29;20193;-73
2023/02/15 05:41:15;;;;;;;3.17;2.40;;;2.90;89.10;;;;;;4820316;29;20191;-73
2023/02/15 05:43:41;;;;;;;2.63;2.43;;;2.90;89.10;;;;;;4818810;29;20196;-73
2023/02/15 05:46:08;;;;;;;6.33;2.63;;;2.90;89.00;;;;;;4819923;29;20198;-73
2023/02/15 05:48:33;;;;;;;2.60;2.17;;;2.80;89.30;;;;;;4821172;29;20195;-73
2023/02/15 05:51:05;;;;;;;4.47;3.03;;;2.90;89.20;;;;;;4822067;29;20214;-73
2023/02/15 05:53:34;;;;;;;3.43;1.70;;;2.90;89.10;;;;;;4815540;29;20258;-73
2023/02/15 05:56:01;;;;;;;2.80;2.60;;;2.90;89.20;;;;;;4821906;29;20196;-72
2023/02/15 05:58:29;;;;;;;1.67;1.53;;;2.80;89.10;;;;;;4837018;29;20192;-73
2023/02/15 06:00:55;;;;;;;4.37;2.70;;;2.90;89.10;;;;;;4822381;29;20278;-73
2023/02/15 06:03:22;;;;;;;2.20;2.10;;;3.00;88.90;;;;;;4826137;29;20712;-73
2023/02/15 06:05:47;;;;;;;3.10;2.47;;;3.00;88.70;;;;;;4838597;29;20234;-74
2023/02/15 06:08:13;;;;;;;2.83;2.63;;;3.00;88.60;;;;;;4824450;29;20669;-73
2023/02/15 06:10:39;;;;;;;9.57;3.80;;;3.00;88.50;;;;;;4827217;29;20267;-73
2023/02/15 06:13:06;;;;;;;3.33;2.50;;;3.00;88.50;;;;;;4823350;29;20289;-73
2023/02/15 06:15:31;;;;;;;2.83;2.60;;;3.10;88.30;;;;;;4821305;29;20229;-73
2023/02/15 06:17:57;;;;;;;1.73;1.63;;;3.10;88.30;;;;;;4839873;29;20267;-74
2023/02/15 06:20:23;;;;;;;4.00;3.47;;;3.10;88.30;;;;;;4824106;29;20199;-73
2023/02/15 06:22:48;;;;;;;2.67;2.47;;;3.10;88.30;;;;;;4824941;29;20305;-72
2023/02/15 06:25:14;;;;;;;4.27;3.60;;;3.10;88.30;;;;;;4823644;29;20184;-73
2023/02/15 06:27:43;;;;;;;2.70;2.10;;;3.10;88.30;;;;;;4837901;29;20680;-73
2023/02/15 06:30:10;;;;;;;3.33;2.10;;;3.10;88.10;;;;;;4822553;29;21019;-73
2023/02/15 06:32:36;;;;;;;2.37;2.03;;;3.20;88.10;;;;;;4825662;29;20303;-74
2023/02/15 06:35:02;;;;;;;2.30;2.10;;;3.20;88.00;;;;;;4823695;29;20271;-74
2023/02/15 06:37:27;;;;;;;2.50;2.30;;;3.20;87.80;;;;;;4832665;29;20199;-74
2023/02/15 06:39:53;;;;;;;2.70;2.57;;;3.20;87.80;;;;;;4824556;29;20187;-73
2023/02/15 06:42:19;;;;;;;3.20;2.47;;;3.20;87.80;;;;;;4819920;29;20287;-73
2023/02/15 06:44:45;;;;;;;2.50;2.30;;;3.20;87.80;;;;;;4826025;29;20195;-73
2023/02/15 06:47:11;;;;;;;3.73;2.87;;;3.30;87.70;;;;;;4827363;29;20198;-72
2023/02/15 06:49:37;;;;;;;2.53;2.37;;;3.40;87.40;;;;;;4825742;29;20180;-72
2023/02/15 06:52:03;;;;;;;1.37;1.27;;;3.40;87.30;;;;;;4826839;29;20471;-73
2023/02/15 06:54:29;;;;;;;3.50;2.10;;;3.40;87.10;;;;;;4844421;29;20187;-73
2023/02/15 06:56:55;;;;;;;2.47;2.27;;;3.50;86.80;;;;;;4825320;29;20183;-73
2023/02/15 06:59:20;;;;;;;2.03;1.93;;;3.50;86.80;;;;;;4822275;29;20829;-73
2023/02/15 07:01:46;;;;;;;2.57;1.97;;;3.50;86.70;;;;;;4820627;29;20286;-73
2023/02/15 07:04:11;;;;;;;2.77;2.33;;;3.50;86.30;;;;;;4821430;29;20589;-73
2023/02/15 07:06:37;;;;;;;3.10;2.47;;;3.50;86.30;;;;;;4825580;29;20637;-73
2023/02/15 07:09:04;;;;;;;3.17;2.33;;;3.50;86.20;;;;;;4820396;29;20638;-73
2023/02/15 07:14:15;;;;;;;3.97;2.37;;;3.70;85.90;;;;;;4823594;29;20226;-73
2023/02/15 07:16:41;;;;;;;3.67;2.50;;;3.80;85.60;;;;;;4822830;29;20191;-73
2023/02/15 07:19:07;;;;;;;3.80;2.53;;;3.90;85.10;;;;;;4824188;29;20235;-73
2023/02/15 07:21:33;;;;;;;2.47;2.27;;;4.00;84.80;;;;;;4818170;29;20259;-73
2023/02/15 07:23:59;;;;;;;2.80;2.33;;;4.00;84.70;;;;;;4823951;29;20305;-73
2023/02/15 07:26:25;;;;;;;2.07;1.97;;;4.00;84.30;;;;;;4823431;29;20205;-73
2023/02/15 07:28:51;;;;;;;2.30;1.97;;;4.10;84.20;;;;;;4824619;29;20192;-73
2023/02/15 07:31:16;;;;;;;1.93;1.83;;;4.20;84.10;;;;;;4819998;29;20214;-73
2023/02/15 07:33:42;;;;;;;5.50;2.67;;;4.20;84.10;;;;;;4825383;29;20234;-73
2023/02/15 07:36:12;;;;;;;1.73;1.63;;;4.20;83.40;;;;;;4820288;29;20203;-72
2023/02/15 07:38:39;;;;;;;4.40;2.30;;;4.20;83.40;;;;;;4820895;29;20182;-73
2023/02/15 07:41:11;;;;;;;3.07;2.23;;;4.30;83.40;;;;;;4818447;29;20221;-73
2023/02/15 07:43:40;;;;;;;2.80;2.70;;;4.40;83.10;;;;;;4823236;29;20272;-73
2023/02/15 07:46:12;;;;;;;2.57;2.30;;;4.40;83.10;;;;;;4822524;29;20194;-73
2023/02/15 07:48:39;;;;;;;2.93;2.73;;;4.50;82.90;;;;;;4823214;29;20195;-73
2023/02/15 07:51:07;;;;;;;2.33;2.07;;;4.60;82.50;;;;;;4819698;29;20207;-73
2023/02/15 07:53:33;;;;;;;2.73;2.53;;;4.60;82.30;;;;;;4821702;29;20670;-73
2023/02/15 07:56:04;;;;;;;2.27;2.10;;;4.70;82.20;;;;;;4823787;29;20631;-73
2023/02/15 08:01:14;;;;;;;3.67;3.10;;;4.70;81.90;;;;;;4818433;29;20255;-73
2023/02/15 08:03:40;;;;;;;3.60;2.73;;;4.70;82.10;;;;;;4824965;29;20257;-73
2023/02/15 08:06:07;;;;;;;1.70;1.60;;;4.80;82.00;;;;;;4822895;29;20188;-72
2023/02/15 08:08:37;;;;;;;5.73;3.00;;;4.80;82.00;;;;;;4818378;29;20639;-74
2023/02/15 08:11:25;;;;;;;2.80;2.43;;;4.80;81.90;;;;;;4836827;29;20191;-73
2023/02/15 08:13:53;;;;;;;2.73;2.53;;;4.80;81.90;;;;;;4822505;29;20223;-72
2023/02/15 08:16:30;;;;;;;3.23;2.30;;;4.80;81.90;;;;;;4821435;29;20193;-73
2023/02/15 08:18:57;;;;;;;2.07;1.87;;;4.80;81.70;;;;;;4822327;29;20553;-73
2023/02/15 08:21:25;;;;;;;2.93;2.40;;;4.90;81.90;;;;;;4819364;29;20207;-74
2023/02/15 08:23:52;;;;;;;5.47;2.87;;;4.90;81.70;;;;;;4824707;29;20210;-74
2023/02/15 08:26:17;;;;;;;6.07;2.40;;;5.00;81.70;;;;;;4819637;29;20293;-73
2023/02/15 08:28:44;;;;;;;2.43;2.27;;;5.10;81.40;;;;;;4815903;29;20759;-73
2023/02/15 08:31:13;;;;;;;3.43;2.57;;;5.10;81.10;;;;;;4819137;29;20287;-73
2023/02/15 08:33:40;;;;;;;8.97;2.80;;;5.10;80.30;;;;;;4827893;29;20211;-73
2023/02/15 08:36:09;;;;;;;1.80;1.70;;;5.10;80.10;;;;;;4833850;29;20209;-72
2023/02/15 08:38:36;;;;;;;3.17;2.83;;;5.00;80.30;;;;;;4824781;29;20187;-73
2023/02/15 08:41:16;;;;;;;3.90;2.63;;;4.90;80.40;;;;;;4822349;29;20202;-72
2023/02/15 08:43:43;;;;;;;2.90;2.47;;;4.80;80.70;;;;;;4821143;29;20199;-73
2023/02/15 08:46:11;;;;;;;2.70;2.50;;;4.80;80.50;;;;;;4818676;29;20202;-73
2023/02/15 08:48:37;;;;;;;3.03;2.80;;;4.80;80.50;;;;;;4818387;29;20250;-72
2023/02/15 08:51:12;;;;;;;3.50;3.07;;;4.80;80.30;;;;;;4818993;29;20318;-72
2023/02/15 08:53:40;;;;;;;6.53;3.53;;;4.80;79.90;;;;;;4817248;29;20226;-72
2023/02/15 08:56:07;;;;;;;3.97;2.37;;;4.70;80.10;;;;;;4823483;29;20195;-73
2023/02/15 08:58:33;;;;;;;6.30;3.43;;;4.70;80.40;;;;;;4819349;29;20188;-73
2023/02/15 09:01:01;;;;;;;3.27;2.80;;;4.80;80.30;;;;;;4808999;29;20191;-73
2023/02/15 09:03:28;;;;;;;7.17;2.90;;;4.90;79.70;;;;;;4829266;29;20191;-73
2023/02/15 09:05:58;;;;;;;3.67;3.03;;;5.00;79.40;;;;;;4815601;29;20228;-73
2023/02/15 09:08:25;;;;;;;3.57;2.73;;;5.00;79.30;;;;;;4821066;29;21029;-73
2023/02/15 09:10:50;;;;;;;3.63;2.53;;;5.10;79.30;;;;;;4819894;29;20635;-73
2023/02/15 09:13:16;;;;;;;3.40;2.70;;;5.20;79.00;;;;;;4821813;29;20224;-74
2023/02/15 09:15:42;;;;;;;3.30;2.97;;;5.40;78.80;;;;;;4827252;29;20248;-71
2023/02/15 09:18:07;;;;;;;4.40;3.23;;;5.50;77.90;;;;;;4819273;29;20196;-73
2023/02/15 09:20:36;;;;;;;3.97;3.23;;;5.60;77.80;;;;;;4814348;29;20278;-73
2023/02/15 09:23:02;;;;;;;3.50;3.07;;;5.70;77.40;;;;;;4822846;29;20254;-73
2023/02/15 09:25:27;;;;;;;3.00;2.63;;;5.80;77.20;;;;;;4821735;29;20733;-73
2023/02/15 09:27:53;;;;;;;4.17;3.23;;;6.00;77.20;;;;;;4821400;29;20235;-73
2023/02/15 09:30:19;;;;;;;4.10;3.03;;;6.10;76.30;;;;;;4837045;29;20187;-73
2023/02/15 09:32:48;;;;;;;9.50;3.20;;;6.20;75.90;;;;;;4822032;29;20243;-73
2023/02/15 09:35:13;;;;;;;10.37;3.43;;;6.20;76.00;;;;;;4821827;29;20207;-73
2023/02/15 09:37:39;;;;;;;7.27;3.50;;;6.20;75.40;;;;;;4823128;29;20713;-73
2023/02/15 09:40:05;;;;;;;4.50;2.97;;;6.20;75.50;;;;;;4817511;29;20216;-72
2023/02/15 09:42:43;;;;;;;5.03;2.97;;;6.20;75.50;;;;;;4820627;29;20191;-72
2023/02/15 09:45:23;;;;;;;4.00;3.60;;;6.20;75.40;;;;;;4822477;29;20187;-72
2023/02/15 09:48:30;;;;;;;4.43;3.30;;;6.10;75.70;;;;;;4825127;29;20195;-72
2023/02/15 09:50:56;;;;;;;6.00;3.47;;;6.00;75.70;;;;;;4807678;29;20279;-72
2023/02/15 09:53:31;;;;;;;3.63;2.80;;;6.00;76.20;;;;;;4803731;29;20799;-72
2023/02/15 09:56:05;;;;;;;7.13;2.90;;;6.00;76.10;;;;;;4804907;29;20249;-72
2023/02/15 09:58:43;;;;;;;8.47;3.27;;;6.00;75.80;;;;;;4801966;29;20272;-72
2023/02/15 10:01:46;;;;;;;5.23;3.07;;;6.10;75.80;;;;;;4810702;29;20195;-73
2023/02/15 10:05:00;;;;;;;2.80;2.60;;;6.10;75.50;;;;;;4803636;29;20195;-72
2023/02/15 10:07:25;;;;;;;3.50;3.17;;;6.10;75.60;;;;;;4822081;29;20708;-72
2023/02/15 10:10:34;;;;;;;5.40;3.97;;;6.30;76.10;;;;;;4820709;29;20209;-72
2023/02/15 10:13:38;;;;;;;4.17;3.00;;;6.60;75.00;;;;;;4815225;29;20235;-73
2023/02/15 10:16:40;;;;;;;6.53;3.47;;;6.40;74.80;;;;;;4818301;29;20200;-73
2023/02/15 10:19:33;;;;;;;4.13;3.03;;;6.50;74.60;;;;;;4762376;29;20205;-73
2023/02/15 10:22:10;;;;;;;3.93;2.83;;;6.50;74.40;;;;;;4749567;30;20201;-73
2023/02/15 10:25:16;;;;;;;6.93;4.10;;;6.50;74.30;;;;;;4762600;29;20283;-73
2023/02/15 10:27:47;;;;;;;2.83;2.60;;;6.70;74.50;;;;;;4718523;30;20207;-73
2023/02/15 10:30:17;;;;;;;6.10;4.00;;;6.80;74.20;;;;;;4720819;30;20227;-73
2023/02/15 10:33:01;;;;;;;5.87;4.53;;;6.60;74.60;;;;;;4715915;30;20208;-73
2023/02/15 10:35:47;;;;;;;4.40;3.97;;;6.70;74.40;;;;;;4719395;30;20218;-72
2023/02/15 10:38:51;;;;;;;7.03;3.87;;;6.70;74.40;;;;;;4717100;30;20209;-73
2023/02/15 10:41:36;;;;;;;7.63;4.63;;;7.00;74.30;;;;;;4715201;30;20239;-73
2023/02/15 10:44:11;;;;;;;5.57;3.90;;;7.20;73.60;;;;;;4719919;30;20517;-73
2023/02/15 10:46:45;;;;;;;6.50;4.20;;;7.40;73.30;;;;;;4724599;30;20703;-73
2023/02/15 10:49:21;;;;;;;5.33;4.43;;;7.50;72.80;;;;;;4727518;30;20257;-74
2023/02/15 10:52:33;;;;;;;5.80;4.10;;;7.60;72.10;;;;;;4725722;30;20222;-74
2023/02/15 10:55:08;;;;;;;4.80;3.57;;;7.50;71.50;;;;;;4729992;29;20314;-72
2023/02/15 10:57:49;;;;;;;4.93;4.17;;;7.50;71.80;;;;;;4780506;29;20204;-73
2023/02/15 11:00:42;;;;;;;6.23;4.63;;;7.90;71.80;;;;;;4781554;29;20241;-74
2023/02/15 11:03:34;;;;;;;7.77;4.07;;;8.00;71.10;;;;;;4792697;29;20222;-74
2023/02/15 11:06:05;;;;;;;4.97;4.50;;;8.60;69.70;;;;;;4820294;29;20739;-73
2023/02/15 11:08:35;;;;;;;6.27;4.83;;;8.90;68.90;;;;;;4811322;29;20200;-73
2023/02/15 11:11:06;;;;;;;4.57;4.10;;;8.90;68.60;;;;;;4823339;29;20840;-73
2023/02/15 11:13:40;;;;;;;7.63;4.37;;;8.90;68.80;;;;;;4801523;29;20280;-73
2023/02/15 11:16:10;;;;;;;7.50;5.27;;;8.60;68.90;;;;;;4820635;29;20223;-73
2023/02/15 11:18:45;;;;;;;8.40;4.80;;;8.40;69.40;;;;;;4817635;29;21226;-73
2023/02/15 11:21:20;;;;;;;9.97;5.30;;;8.60;70.20;;;;;;4816691;29;20319;-73
2023/02/15 11:23:47;;;;;;;8.77;5.20;;;9.20;69.30;;;;;;4816066;29;20296;-73
2023/02/15 11:26:31;;;;;;;9.60;5.97;;;9.70;68.10;;;;;;4812187;29;20218;-72
2023/02/15 11:29:36;;;;;;;7.73;5.53;;;9.90;67.00;;;;;;4817974;29;20195;-75
2023/02/15 11:32:03;;;;;;;8.80;6.27;;;10.20;66.70;;;;;;4816759;29;20238;-74
2023/02/15 11:34:38;;;;;;;10.00;5.40;;;10.70;65.40;;;;;;4819383;29;20796;-74
2023/02/15 11:37:37;;;;;;;8.85;5.25;;;11.10;64.50;;;;;;4812984;29;20203;-75
2023/02/15 11:40:26;;;;;;;7.72;5.63;;;11.70;64.00;;;;;;4816834;29;20187;-74
2023/02/15 11:42:56;;;;;;;7.93;5.53;;;12.20;62.70;;;;;;4820244;29;20183;-74
2023/02/15 11:45:21;;;;;;;7.85;6.10;;;12.70;61.90;;;;;;4824487;29;20240;-74
2023/02/15 11:47:48;;;;;;;7.53;6.43;;;13.20;60.70;;;;;;4822434;29;20196;-74
2023/02/15 11:50:22;;;;;;;9.98;6.32;;;13.60;60.30;;;;;;4816423;29;20179;-75
2023/02/15 11:52:52;;;;;;;10.00;6.70;;;13.80;58.90;;;;;;4831030;29;20705;-75
2023/02/15 11:55:23;;;;;;;10.05;7.25;;;14.10;58.30;;;;;;4817182;29;20188;-71
2023/02/15 11:57:59;;;;;;;11.75;6.85;;;14.60;58.40;;;;;;4837007;29;20207;-74
2023/02/15 12:00:46;;;;;;;9.15;6.28;;;15.00;57.50;;;;;;4820128;29;20190;-76
2023/02/15 12:03:46;;;;;;;8.60;6.32;;;15.40;56.20;;;;;;4822869;29;20279;-74
2023/02/15 12:06:33;;;;;;;12.48;7.70;;;15.50;56.00;;;;;;4832535;29;20291;-74
2023/02/15 12:09:11;;;;;;;8.23;6.85;;;15.70;55.50;;;;;;4817759;29;20591;-74
2023/02/15 12:11:39;;;;;;;11.32;7.25;;;15.70;55.00;;;;;;4815747;29;20750;-74
2023/02/15 12:14:11;;;;;;;10.85;6.80;;;15.60;55.30;;;;;;4820241;29;20241;-78
2023/02/15 12:16:56;;;;;;;9.57;6.82;;;15.70;55.70;;;;;;4819036;29;20192;-74
2023/02/15 12:19:40;;;;;;;10.85;6.15;;;15.90;54.90;;;;;;4819530;29;20217;-76
2023/02/15 12:22:17;;;;;;;11.48;7.55;;;15.80;55.30;;;;;;4836412;29;20202;-73
2023/02/15 12:24:48;;;;;;;12.23;7.13;;;16.00;55.20;;;;;;4820857;29;20602;-73
2023/02/15 12:27:42;;;;;;;9.77;7.70;;;16.10;54.70;;;;;;4816841;29;20316;-75
2023/02/15 12:30:40;;;;;;;11.43;7.18;;;16.10;54.20;;;;;;4836868;29;20259;-75
2023/02/15 12:33:14;;;;;;;9.93;7.45;;;16.00;54.50;;;;;;4842914;29;20736;-76
2023/02/15 12:35:40;;;;;;;9.23;7.28;;;15.70;54.30;;;;;;4840963;29;20215;-74
2023/02/15 12:38:11;;;;;;;10.80;6.90;;;15.40;55.40;;;;;;4836955;29;20195;-74
2023/02/15 12:40:39;;;;;;;8.48;6.47;;;15.20;55.30;;;;;;4844700;29;20203;-76
2023/02/15 12:43:25;;;;;;;11.20;7.82;;;15.20;55.30;;;;;;4837525;29;20942;-76
2023/02/15 12:45:51;;;;;;;8.15;6.72;;;15.40;55.60;;;;;;4822085;29;20783;-75
2023/02/15 12:48:19;;;;;;;9.07;6.90;;;15.50;55.10;;;;;;4836881;29;20199;-76
2023/02/15 12:50:46;;;;;;;10.48;7.57;;;15.70;55.50;;;;;;4839602;29;20605;-76
2023/02/15 12:53:18;;;;;;;9.27;6.70;;;15.90;54.70;;;;;;4841843;29;20706;-76
2023/02/15 12:56:02;;;;;;;8.32;6.70;;;16.10;54.50;;;;;;4837788;29;20187;-76
2023/02/15 12:58:36;;;;;;;8.88;6.65;;;16.00;53.90;;;;;;4830151;29;20747;-76
2023/02/15 13:01:25;;;;;;;10.20;7.18;;;15.90;54.00;;;;;;4845453;29;20195;-74
2023/02/15 13:03:53;;;;;;;10.55;7.47;;;15.90;54.00;;;;;;4843752;29;20194;-74
2023/02/15 13:06:21;;;;;;;9.02;6.63;;;16.00;54.50;;;;;;4838276;29;20219;-74
2023/02/15 13:08:51;;;;;;;10.25;7.10;;;16.30;54.00;;;;;;4818865;29;20226;-74
2023/02/15 13:11:37;;;;;;;12.40;7.22;;;16.50;53.50;;;;;;4821328;29;20191;-74
2023/02/15 13:14:18;;;;;;;7.50;6.22;;;16.60;53.00;;;;;;4826684;29;20259;-73
2023/02/15 13:16:47;;;;;;;10.45;7.43;;;16.80;53.10;;;;;;4822392;29;20202;-74
2023/02/15 13:19:17;;;;;;;14.60;8.05;;;16.70;52.70;;;;;;4820918;29;20195;-74
2023/02/15 13:21:48;;;;;;;11.80;7.35;;;16.20;53.10;;;;;;4822953;29;20247;-74
2023/02/15 13:24:27;;;;;;;10.27;7.00;;;15.70;53.80;;;;;;4827458;29;20202;-74
2023/02/15 13:26:58;;;;;;;11.38;7.90;;;15.50;54.50;;;;;;4823003;29;20175;-74
2023/02/15 13:29:29;;;;;;;11.77;7.70;;;15.50;55.00;;;;;;4837844;29;20721;-74
2023/02/15 13:31:57;;;;;;;9.35;7.57;;;15.60;54.50;;;;;;4813614;29;20681;-74
2023/02/15 13:34:33;;;;;;;10.23;7.38;;;15.60;54.90;;;;;;4815581;29;20267;-74
2023/02/15 13:37:28;;;;;;;9.82;6.88;;;15.50;54.50;;;;;;4817215;29;20200;-75
2023/02/15 13:40:20;;;;;;;9.93;6.85;;;15.20;54.60;;;;;;4818651;29;20191;-74
2023/02/15 13:43:16;;;;;;;9.82;7.05;;;14.90;55.10;;;;;;4824173;29;20187;-74
2023/02/15 13:45:57;;;;;;;10.45;7.15;;;14.70;55.60;;;;;;4822151;29;20891;-74
2023/02/15 13:48:51;;;;;;;9.20;6.80;;;14.60;55.80;;;;;;4825324;29;20970;-74
2023/02/15 13:51:25;;;;;;;12.30;6.93;;;14.60;56.00;;;;;;4821807;29;20192;-74